Time;durP1;ratioP1;P1;durP2;ratioP2;P2;SDS_P1;SDS_P2;PMS_P1;PMS_P2;Temp;Humidity;BMP_temperature;BMP_pressure;BME280_temperature;BME280_humidity;BME280_pressure;Samples;Min_cycle;Max_cycle;Signal;HPM_P1;HPM_P2
2022/04/21 00:01:36;;;;;;;4.30;2.38;;;9.70;99.90;;;;;;5029271;28;20034;-77
2022/04/21 00:04:01;;;;;;;11.70;3.67;;;9.70;99.90;;;;;;5010885;28;20103;-78
2022/04/21 00:06:28;;;;;;;5.88;2.80;;;9.60;99.90;;;;;;5032053;28;20025;-78
2022/04/21 00:08:53;;;;;;;4.05;2.67;;;9.60;99.90;;;;;;5013825;28;20025;-78
2022/04/21 00:11:19;;;;;;;6.47;2.55;;;9.60;99.90;;;;;;5008726;28;20026;-77
2022/04/21 00:13:45;;;;;;;4.30;2.75;;;9.50;99.90;;;;;;5030863;28;20022;-78
2022/04/21 00:16:10;;;;;;;6.22;2.42;;;9.50;99.90;;;;;;5011139;28;20021;-78
2022/04/21 00:18:36;;;;;;;11.15;2.60;;;9.50;99.90;;;;;;5025390;28;20034;-79
2022/04/21 00:21:02;;;;;;;7.90;3.33;;;9.40;99.90;;;;;;5031336;28;20026;-78
2022/04/21 00:23:28;;;;;;;10.23;3.45;;;9.40;99.90;;;;;;5009066;28;20061;-79
2022/04/21 00:25:59;;;;;;;5.50;3.33;;;9.40;99.90;;;;;;5027232;28;20060;-77
2022/04/21 00:28:26;;;;;;;6.63;3.17;;;9.30;99.90;;;;;;5022773;28;20076;-79
2022/04/21 00:30:51;;;;;;;5.90;2.75;;;9.30;99.90;;;;;;5024957;28;20021;-78
2022/04/21 00:33:17;;;;;;;7.05;2.70;;;9.20;99.90;;;;;;5032942;28;20014;-79
2022/04/21 00:35:43;;;;;;;10.10;2.50;;;9.20;99.90;;;;;;5031503;28;20022;-78
2022/04/21 00:38:08;;;;;;;9.65;3.05;;;9.20;99.90;;;;;;5007581;28;20038;-78
2022/04/21 00:40:34;;;;;;;12.85;3.05;;;9.10;99.90;;;;;;5022181;28;20034;-78
2022/04/21 00:43:04;;;;;;;6.45;2.33;;;9.10;99.90;;;;;;5028557;28;20032;-78
2022/04/21 00:45:31;;;;;;;9.50;2.55;;;9.10;99.90;;;;;;5015329;28;20026;-79
2022/04/21 00:47:58;;;;;;;5.30;2.78;;;9.00;99.90;;;;;;5031116;28;20018;-78
2022/04/21 00:50:28;;;;;;;4.40;2.85;;;9.00;99.90;;;;;;5025873;28;20474;-78
2022/04/21 00:52:55;;;;;;;6.03;2.30;;;9.00;99.90;;;;;;5028705;28;20029;-80
2022/04/21 00:55:22;;;;;;;5.28;2.60;;;9.00;99.90;;;;;;5014638;28;20026;-80
2022/04/21 00:57:48;;;;;;;6.80;2.55;;;8.90;99.90;;;;;;5031047;28;20049;-78
2022/04/21 01:00:15;;;;;;;5.95;2.30;;;8.80;99.90;;;;;;5025495;28;20017;-80
2022/04/21 01:02:49;;;;;;;5.90;2.47;;;8.80;99.90;;;;;;5027623;28;20018;-79
2022/04/21 01:05:18;;;;;;;6.25;2.65;;;8.80;99.90;;;;;;5027914;28;20025;-78
2022/04/21 01:07:45;;;;;;;4.88;2.30;;;8.70;99.90;;;;;;5021601;28;20018;-77
2022/04/21 01:10:15;;;;;;;3.92;2.60;;;8.70;99.90;;;;;;5024703;28;21077;-77
2022/04/21 01:12:43;;;;;;;8.27;3.03;;;8.70;99.90;;;;;;5031165;28;20025;-77
2022/04/21 01:15:10;;;;;;;6.07;2.80;;;8.70;99.90;;;;;;5007163;28;20034;-77
2022/04/21 01:17:37;;;;;;;4.25;2.25;;;8.60;99.90;;;;;;5014364;28;20063;-77
2022/04/21 01:20:10;;;;;;;4.15;2.00;;;8.60;99.90;;;;;;5009807;28;20022;-77
2022/04/21 01:22:36;;;;;;;9.05;2.75;;;8.60;99.90;;;;;;5023769;28;20026;-77
2022/04/21 01:25:01;;;;;;;5.55;2.80;;;8.50;99.90;;;;;;5013619;28;20405;-77
2022/04/21 01:27:33;;;;;;;4.32;2.40;;;8.50;99.90;;;;;;5027247;28;20022;-77
2022/04/21 01:30:00;;;;;;;6.38;2.92;;;8.40;99.90;;;;;;5013286;28;20029;-77
2022/04/21 01:32:26;;;;;;;5.55;2.72;;;8.40;99.90;;;;;;5013626;28;20022;-76
2022/04/21 01:34:52;;;;;;;6.88;2.83;;;8.40;99.90;;;;;;5030123;28;20022;-78
2022/04/21 01:42:47;;;;;;;6.57;3.13;;;8.30;99.90;;;;;;5030905;28;21235;-78
2022/04/21 01:45:13;;;;;;;3.45;2.08;;;8.30;99.90;;;;;;5025367;28;20037;-79
2022/04/21 01:47:39;;;;;;;6.50;2.78;;;8.30;99.90;;;;;;5026435;28;20433;-78
2022/04/21 01:50:08;;;;;;;5.13;2.95;;;8.30;99.90;;;;;;5014621;28;20033;-77
2022/04/21 01:52:36;;;;;;;6.18;2.45;;;8.30;99.90;;;;;;5028066;28;20030;-77
2022/04/21 01:55:03;;;;;;;4.13;2.83;;;8.20;99.90;;;;;;5028054;28;20024;-78
2022/04/21 01:57:29;;;;;;;5.13;2.58;;;8.20;99.90;;;;;;5024442;28;20084;-77
2022/04/21 01:59:54;;;;;;;5.63;2.97;;;8.20;99.90;;;;;;5030416;28;20025;-78
2022/04/21 02:02:20;;;;;;;4.18;2.78;;;8.20;99.90;;;;;;5025230;28;20736;-76
2022/04/21 02:04:45;;;;;;;4.10;2.58;;;8.10;99.90;;;;;;5012983;28;20051;-77
2022/04/21 02:07:14;;;;;;;8.13;3.00;;;8.10;99.90;;;;;;5027235;28;20533;-78
2022/04/21 02:09:40;;;;;;;15.60;3.97;;;8.10;99.90;;;;;;5027531;28;20069;-77
2022/04/21 02:12:06;;;;;;;6.22;3.45;;;8.10;99.90;;;;;;5025685;28;20397;-77
2022/04/21 02:14:33;;;;;;;6.03;2.72;;;8.00;99.90;;;;;;5007940;28;20024;-78
2022/04/21 02:17:00;;;;;;;9.15;2.95;;;8.10;99.90;;;;;;5012281;28;20139;-78
2022/04/21 02:19:25;;;;;;;6.30;2.65;;;8.00;99.90;;;;;;5010738;28;20026;-78
2022/04/21 02:21:51;;;;;;;6.13;2.88;;;8.00;99.90;;;;;;5026153;28;20030;-78
2022/04/21 02:24:16;;;;;;;5.57;2.70;;;8.00;99.90;;;;;;5022080;28;20470;-77
2022/04/21 02:26:42;;;;;;;5.40;3.22;;;7.90;99.90;;;;;;5030230;28;20022;-77
2022/04/21 02:29:07;;;;;;;11.25;3.25;;;7.90;99.90;;;;;;5028938;28;20029;-78
2022/04/21 02:31:33;;;;;;;6.10;2.70;;;7.90;99.90;;;;;;5033456;28;20029;-78
2022/04/21 02:33:59;;;;;;;7.25;2.45;;;7.90;99.90;;;;;;5017213;28;20030;-78
2022/04/21 02:36:24;;;;;;;7.38;3.13;;;7.90;99.90;;;;;;5031583;28;20026;-79
2022/04/21 02:38:50;;;;;;;10.00;2.97;;;7.90;99.90;;;;;;5030311;28;20049;-78
2022/04/21 02:41:16;;;;;;;6.55;2.70;;;7.90;99.90;;;;;;5028253;28;20026;-78
2022/04/21 02:43:41;;;;;;;4.90;2.78;;;7.90;99.90;;;;;;5015461;28;20048;-79
2022/04/21 02:46:09;;;;;;;5.07;2.40;;;7.80;99.90;;;;;;5009671;28;20034;-77
2022/04/21 02:48:35;;;;;;;8.25;2.67;;;7.80;99.90;;;;;;5030471;28;20029;-78
2022/04/21 02:51:01;;;;;;;3.50;2.60;;;7.80;99.90;;;;;;5030841;28;20025;-78
2022/04/21 02:58:55;;;;;;;4.18;2.38;;;7.80;99.90;;;;;;5029545;28;20099;-78
2022/04/21 03:01:20;;;;;;;4.60;2.38;;;7.80;99.90;;;;;;5031318;28;20525;-78
2022/04/21 03:03:46;;;;;;;4.95;2.33;;;7.80;99.90;;;;;;5027924;28;20108;-79
2022/04/21 03:06:12;;;;;;;5.38;2.40;;;7.80;99.90;;;;;;5027835;28;20026;-79
2022/04/21 03:08:38;;;;;;;6.38;2.50;;;7.70;99.90;;;;;;5033549;28;20027;-79
2022/04/21 03:11:04;;;;;;;5.20;2.28;;;7.70;99.90;;;;;;5026472;28;20034;-78
2022/04/21 03:13:29;;;;;;;3.50;2.00;;;7.70;99.90;;;;;;5016003;28;20033;-80
2022/04/21 03:15:55;;;;;;;4.25;2.10;;;7.70;99.90;;;;;;5033164;28;20017;-78
2022/04/21 03:18:21;;;;;;;4.70;2.60;;;7.70;99.90;;;;;;5026981;28;20405;-78
2022/04/21 03:26:17;;;;;;;5.47;2.42;;;7.60;99.90;;;;;;5027218;28;20076;-79
2022/04/21 03:28:44;;;;;;;3.95;2.47;;;7.50;99.90;;;;;;5032386;28;20034;-79
2022/04/21 03:31:09;;;;;;;3.83;2.78;;;7.50;99.90;;;;;;5015659;28;20091;-78
2022/04/21 03:33:35;;;;;;;5.90;2.80;;;7.50;99.90;;;;;;5015740;28;20104;-78
2022/04/21 03:36:00;;;;;;;5.63;2.75;;;7.50;99.90;;;;;;5029478;28;20177;-78
2022/04/21 03:38:26;;;;;;;16.15;3.35;;;7.40;99.90;;;;;;5026480;28;20041;-79
2022/04/21 03:40:52;;;;;;;4.43;2.33;;;7.40;99.90;;;;;;5014235;28;20025;-80
2022/04/21 03:43:17;;;;;;;8.25;2.90;;;7.40;99.90;;;;;;5027281;28;20033;-80
2022/04/21 03:45:43;;;;;;;3.60;2.28;;;7.40;99.90;;;;;;5015674;28;20017;-80
2022/04/21 03:48:09;;;;;;;6.85;3.67;;;7.40;99.90;;;;;;5030218;28;20397;-80
2022/04/21 03:50:35;;;;;;;5.25;2.65;;;7.40;99.90;;;;;;5032146;28;20025;-80
2022/04/21 03:53:00;;;;;;;4.13;2.30;;;7.40;99.90;;;;;;5015818;28;20021;-79
2022/04/21 03:55:26;;;;;;;5.28;2.85;;;7.40;99.90;;;;;;5029488;28;20090;-79
2022/04/21 03:57:52;;;;;;;10.15;3.70;;;7.40;99.90;;;;;;5028357;28;20041;-80
2022/04/21 04:00:18;;;;;;;6.53;2.80;;;7.40;99.90;;;;;;5012954;28;20080;-76
2022/04/21 04:02:44;;;;;;;7.30;2.75;;;7.30;99.90;;;;;;5015597;28;20096;-77
2022/04/21 04:05:10;;;;;;;3.97;2.70;;;7.30;99.90;;;;;;5031594;28;20029;-76
2022/04/21 04:13:03;;;;;;;10.52;2.90;;;7.20;99.90;;;;;;5027354;28;20029;-76
2022/04/21 04:15:29;;;;;;;5.18;2.63;;;7.20;99.90;;;;;;5013183;28;20021;-75
2022/04/21 04:17:55;;;;;;;6.32;3.22;;;7.20;99.90;;;;;;5024397;28;20116;-76
2022/04/21 04:20:21;;;;;;;13.85;3.67;;;7.20;99.90;;;;;;5015205;28;20420;-78
2022/04/21 04:22:46;;;;;;;5.45;2.50;;;7.20;99.90;;;;;;5013395;28;20085;-76
2022/04/21 04:25:12;;;;;;;4.57;2.10;;;7.20;99.90;;;;;;5024986;28;20042;-78
2022/04/21 04:27:38;;;;;;;6.03;2.70;;;7.20;99.90;;;;;;5003857;28;20358;-77
2022/04/21 04:30:08;;;;;;;8.13;3.17;;;7.20;99.90;;;;;;5031099;28;20097;-76
2022/04/21 04:32:34;;;;;;;3.60;2.50;;;7.10;99.90;;;;;;5026283;28;20022;-76
2022/04/21 04:35:00;;;;;;;13.05;3.65;;;7.20;99.90;;;;;;5027165;28;20021;-78
2022/04/21 04:37:27;;;;;;;8.30;3.65;;;7.10;99.90;;;;;;5012660;28;20038;-83
2022/04/21 04:39:55;;;;;;;11.25;3.22;;;7.10;99.90;;;;;;5014407;28;20022;-77
2022/04/21 04:42:22;;;;;;;4.93;2.67;;;7.20;99.90;;;;;;5014390;28;20026;-79
2022/04/21 04:47:40;;;;;;;5.18;2.53;;;7.10;99.90;;;;;;5023820;28;20040;-76
2022/04/21 04:50:07;;;;;;;8.45;2.65;;;7.10;99.90;;;;;;5030640;28;20089;-78
2022/04/21 04:52:33;;;;;;;4.10;2.08;;;7.20;99.90;;;;;;5026807;28;20061;-79
2022/04/21 04:54:59;;;;;;;6.68;2.50;;;7.20;99.90;;;;;;5012947;28;20489;-78
2022/04/21 04:57:24;;;;;;;7.07;2.95;;;7.20;99.90;;;;;;5008360;28;20057;-78
2022/04/21 04:59:50;;;;;;;5.90;2.42;;;7.20;99.90;;;;;;5013487;28;20022;-77
2022/04/21 05:02:20;;;;;;;6.35;2.35;;;7.30;99.90;;;;;;5012972;28;20029;-78
2022/04/21 05:04:47;;;;;;;8.80;2.40;;;7.40;99.90;;;;;;5029042;28;20017;-80
2022/04/21 05:07:14;;;;;;;6.65;2.92;;;7.30;99.90;;;;;;5012738;28;20409;-76
2022/04/21 05:09:40;;;;;;;6.05;2.65;;;7.40;99.90;;;;;;5027401;28;20480;-79
2022/04/21 05:12:07;;;;;;;8.73;3.08;;;7.50;99.90;;;;;;5006607;28;20021;-78
2022/04/21 05:14:33;;;;;;;5.07;2.63;;;7.40;99.90;;;;;;5027636;28;20026;-77
2022/04/21 05:17:00;;;;;;;3.97;1.90;;;7.40;99.90;;;;;;5026826;28;20018;-77
2022/04/21 05:19:26;;;;;;;8.00;3.15;;;7.50;99.90;;;;;;5019142;28;20081;-79
2022/04/21 05:21:52;;;;;;;4.20;2.03;;;7.50;99.90;;;;;;5007181;28;20034;-77
2022/04/21 05:24:19;;;;;;;4.72;2.28;;;7.50;99.90;;;;;;5030728;28;20037;-77
2022/04/21 05:26:45;;;;;;;4.60;2.65;;;7.50;99.90;;;;;;5025717;28;20087;-79
2022/04/21 05:32:04;;;;;;;4.18;2.75;;;7.50;99.90;;;;;;5025770;28;20033;-78
2022/04/21 05:34:31;;;;;;;13.93;2.47;;;7.50;99.90;;;;;;5025593;28;20056;-77
2022/04/21 05:36:58;;;;;;;5.30;2.83;;;7.60;99.90;;;;;;5012070;28;20026;-78
2022/04/21 05:39:26;;;;;;;4.38;2.55;;;7.60;99.90;;;;;;4999916;28;20045;-78
2022/04/21 05:41:52;;;;;;;5.35;2.38;;;7.60;99.90;;;;;;5012435;28;20058;-78
2022/04/21 05:44:20;;;;;;;6.85;2.55;;;7.60;99.90;;;;;;5011265;28;20098;-78
2022/04/21 05:46:47;;;;;;;7.40;3.13;;;7.70;99.90;;;;;;5012314;28;20033;-79
2022/04/21 05:49:13;;;;;;;5.60;2.45;;;7.70;99.90;;;;;;5024008;28;20108;-80
2022/04/21 05:51:39;;;;;;;4.80;2.50;;;7.80;99.90;;;;;;5030868;28;20022;-81
2022/04/21 05:54:06;;;;;;;5.15;2.53;;;7.80;99.90;;;;;;5010598;28;20568;-78
2022/04/21 05:56:33;;;;;;;4.03;2.30;;;7.90;99.90;;;;;;5030908;28;20025;-77
2022/04/21 05:58:59;;;;;;;13.20;3.28;;;7.90;99.90;;;;;;5014382;28;20050;-77
2022/04/21 06:01:25;;;;;;;5.75;2.72;;;8.00;99.90;;;;;;5033806;28;20029;-78
2022/04/21 06:03:58;;;;;;;8.43;3.10;;;8.10;99.90;;;;;;5012637;28;20079;-76
2022/04/21 06:06:28;;;;;;;7.85;3.15;;;8.10;99.90;;;;;;5002633;28;20029;-77
2022/04/21 06:09:01;;;;;;;4.05;2.30;;;8.20;99.90;;;;;;5028413;28;20068;-78
2022/04/21 06:11:27;;;;;;;4.78;1.83;;;8.30;99.90;;;;;;5025673;28;20034;-76
2022/04/21 06:13:53;;;;;;;6.07;2.63;;;8.40;99.90;;;;;;5008309;28;20026;-76
2022/04/21 06:16:18;;;;;;;3.80;2.05;;;8.50;99.90;;;;;;5032781;28;20045;-78
2022/04/21 06:18:45;;;;;;;3.45;1.88;;;8.60;99.90;;;;;;5027628;28;20037;-76
2022/04/21 06:21:10;;;;;;;8.18;2.40;;;8.70;99.90;;;;;;5008077;28;20045;-76
2022/04/21 06:23:36;;;;;;;4.53;2.13;;;8.90;99.90;;;;;;5032277;28;20022;-79
2022/04/21 06:26:03;;;;;;;6.13;2.10;;;9.00;99.90;;;;;;5007501;28;20124;-76
2022/04/21 06:28:38;;;;;;;3.30;2.15;;;9.10;99.90;;;;;;5006195;28;20030;-78
2022/04/21 06:31:05;;;;;;;3.47;2.05;;;9.10;99.90;;;;;;5025266;28;20030;-77
2022/04/21 06:33:31;;;;;;;3.58;2.25;;;9.30;99.90;;;;;;5025715;28;20029;-79
2022/04/21 06:35:58;;;;;;;3.83;2.28;;;9.40;99.90;;;;;;5024226;28;20090;-75
2022/04/21 06:38:24;;;;;;;13.07;2.25;;;9.50;99.90;;;;;;5025315;28;20717;-78
2022/04/21 06:40:49;;;;;;;3.58;1.92;;;9.60;99.90;;;;;;5025047;28;20041;-77
2022/04/21 06:48:46;;;;;;;3.97;2.10;;;9.90;99.90;;;;;;5024492;28;20081;-78
2022/04/21 06:51:13;;;;;;;3.28;1.77;;;10.00;99.90;;;;;;5023287;28;20026;-78
2022/04/21 06:53:39;;;;;;;8.55;1.60;;;10.00;99.90;;;;;;5004622;28;20053;-76
2022/04/21 06:56:05;;;;;;;3.30;2.03;;;10.20;99.90;;;;;;5021918;28;20116;-76
2022/04/21 06:58:31;;;;;;;3.13;1.60;;;10.10;99.90;;;;;;5022692;28;20736;-77
2022/04/21 07:00:57;;;;;;;10.18;1.92;;;10.20;99.90;;;;;;5003230;28;20037;-77
2022/04/21 07:03:23;;;;;;;8.18;2.22;;;10.20;99.90;;;;;;5005924;28;20026;-79
2022/04/21 07:05:51;;;;;;;9.68;2.50;;;10.20;99.90;;;;;;5006241;28;20041;-79
2022/04/21 07:08:18;;;;;;;3.97;1.98;;;10.20;99.90;;;;;;5006320;28;20038;-79
2022/04/21 07:10:44;;;;;;;3.95;2.38;;;10.30;99.90;;;;;;5021388;28;20026;-80
2022/04/21 07:13:11;;;;;;;2.70;1.77;;;10.30;99.90;;;;;;5022535;28;20036;-77
2022/04/21 07:15:40;;;;;;;4.95;2.30;;;10.30;99.90;;;;;;5006286;28;20041;-79
2022/04/21 07:18:08;;;;;;;6.15;1.80;;;10.30;99.90;;;;;;5006165;28;20478;-81
2022/04/21 07:20:34;;;;;;;4.75;2.45;;;10.20;99.90;;;;;;5021517;28;20120;-78
2022/04/21 07:23:00;;;;;;;6.63;2.58;;;10.20;99.90;;;;;;5022465;28;20039;-76
2022/04/21 07:25:26;;;;;;;3.47;2.50;;;10.20;99.90;;;;;;5021747;28;20038;-78
2022/04/21 07:27:54;;;;;;;4.60;2.50;;;10.30;99.90;;;;;;5023270;28;20034;-76
2022/04/21 07:30:19;;;;;;;4.53;2.25;;;10.60;99.90;;;;;;5023425;28;20022;-77
2022/04/21 07:32:46;;;;;;;4.60;2.22;;;10.90;99.90;;;;;;5023715;28;20140;-75
2022/04/21 07:35:11;;;;;;;6.68;2.80;;;11.10;99.90;;;;;;5006493;28;20029;-74
2022/04/21 07:37:37;;;;;;;3.40;1.75;;;11.30;99.90;;;;;;5004101;28;20057;-75
2022/04/21 07:40:04;;;;;;;3.28;2.00;;;11.60;99.90;;;;;;5014091;28;20041;-75
2022/04/21 07:42:30;;;;;;;3.50;1.70;;;11.70;99.90;;;;;;5006191;28;20457;-76
2022/04/21 07:45:01;;;;;;;3.10;1.45;;;11.80;99.90;;;;;;5002716;28;20193;-76
2022/04/21 07:47:27;;;;;;;4.28;2.13;;;12.00;99.90;;;;;;5005048;28;20060;-76
2022/04/21 07:49:53;;;;;;;3.17;2.20;;;12.20;99.90;;;;;;5023639;28;20026;-75
2022/04/21 07:55:16;;;;;;;5.93;2.17;;;12.40;99.90;;;;;;5024202;28;20053;-76
2022/04/21 07:57:47;;;;;;;5.50;1.98;;;12.50;99.90;;;;;;5023134;28;20069;-76
2022/04/21 08:00:16;;;;;;;3.97;1.88;;;12.50;99.90;;;;;;5005811;28;20037;-75
2022/04/21 08:02:44;;;;;;;2.97;1.55;;;12.60;99.90;;;;;;5023564;28;20014;-76
2022/04/21 08:05:13;;;;;;;4.35;1.80;;;12.80;99.90;;;;;;5023790;28;20030;-77
2022/04/21 08:07:40;;;;;;;2.97;1.70;;;12.70;99.90;;;;;;5018930;28;20026;-78
2022/04/21 08:10:08;;;;;;;1.98;1.25;;;12.80;99.90;;;;;;5021635;28;20030;-77
2022/04/21 08:12:41;;;;;;;3.75;1.48;;;12.70;99.90;;;;;;5023219;28;20033;-77
2022/04/21 08:15:08;;;;;;;1.80;1.30;;;12.70;99.90;;;;;;5022307;28;20018;-77
2022/04/21 08:17:36;;;;;;;4.88;1.83;;;12.70;99.90;;;;;;5005430;28;20050;-76
2022/04/21 08:20:08;;;;;;;4.90;2.00;;;12.70;99.90;;;;;;5005503;28;20025;-75
2022/04/21 08:22:34;;;;;;;3.25;1.80;;;12.80;99.90;;;;;;5023082;28;20030;-75
2022/04/21 08:33:18;;;;;;;2.22;1.35;;;13.60;99.90;;;;;;5020995;28;20095;-78
2022/04/21 08:35:45;;;;;;;2.47;1.38;;;13.70;99.90;;;;;;5019702;28;20022;-75
2022/04/21 08:38:14;;;;;;;3.60;1.95;;;13.90;99.90;;;;;;4998506;28;20046;-78
2022/04/21 08:41:03;;;;;;;2.15;1.25;;;14.00;99.90;;;;;;5017181;28;20037;-74
2022/04/21 08:43:29;;;;;;;7.30;1.98;;;14.20;99.90;;;;;;5017896;28;20049;-75
2022/04/21 08:45:56;;;;;;;5.10;1.67;;;14.40;99.90;;;;;;5017898;28;20074;-75
2022/04/21 08:48:23;;;;;;;11.20;1.67;;;14.50;99.90;;;;;;5001548;28;20029;-74
2022/04/21 08:50:49;;;;;;;5.55;1.67;;;14.60;99.90;;;;;;5019328;28;20098;-77
2022/04/21 08:53:19;;;;;;;3.47;1.95;;;14.70;99.90;;;;;;5019752;28;20062;-76
2022/04/21 08:55:49;;;;;;;3.80;1.58;;;14.80;99.90;;;;;;5019042;28;20038;-77
2022/04/21 08:58:14;;;;;;;5.53;1.98;;;14.70;99.90;;;;;;5001442;28;20045;-75
2022/04/21 09:00:43;;;;;;;3.03;1.30;;;14.60;99.90;;;;;;5018062;28;20025;-76
2022/04/21 09:03:11;;;;;;;2.05;1.50;;;14.50;99.90;;;;;;5002513;28;20036;-76
2022/04/21 09:05:44;;;;;;;3.38;2.03;;;14.60;99.90;;;;;;5019606;28;20022;-76
2022/04/21 09:08:26;;;;;;;1.70;1.13;;;14.80;99.90;;;;;;5004000;28;20614;-78
2022/04/21 09:11:15;;;;;;;3.03;1.58;;;15.00;99.90;;;;;;5005110;28;20108;-75
2022/04/21 09:13:46;;;;;;;9.07;1.92;;;15.40;99.90;;;;;;5022845;28;20061;-78
2022/04/21 09:16:14;;;;;;;3.17;1.45;;;15.60;99.90;;;;;;5022397;28;20097;-76
2022/04/21 09:18:43;;;;;;;2.53;1.63;;;15.80;99.90;;;;;;5019625;28;20052;-77
2022/04/21 09:21:17;;;;;;;3.20;1.55;;;15.90;99.90;;;;;;5019664;28;20046;-75
2022/04/21 09:23:44;;;;;;;4.50;2.30;;;15.90;99.90;;;;;;5021730;28;20374;-75
2022/04/21 09:26:15;;;;;;;5.55;1.90;;;15.90;99.90;;;;;;5003997;28;20073;-76
2022/04/21 09:28:41;;;;;;;5.63;1.55;;;15.80;99.90;;;;;;5001708;28;20038;-79
2022/04/21 09:31:08;;;;;;;1.60;1.17;;;15.80;99.90;;;;;;5020345;28;20022;-77
2022/04/21 09:33:36;;;;;;;6.05;2.03;;;16.00;99.90;;;;;;5022638;28;20194;-77
2022/04/21 09:36:05;;;;;;;3.15;1.67;;;16.20;99.90;;;;;;5007865;28;20087;-76
2022/04/21 09:38:31;;;;;;;3.38;1.50;;;16.50;99.90;;;;;;5026280;28;20042;-77
2022/04/21 09:41:05;;;;;;;4.57;1.92;;;16.60;99.90;;;;;;5026009;28;20026;-77
2022/04/21 09:43:33;;;;;;;6.38;1.77;;;16.70;99.90;;;;;;5026301;28;20106;-76
2022/04/21 09:46:16;;;;;;;1.85;1.13;;;17.00;99.90;;;;;;5008598;28;20076;-76
2022/04/21 09:48:43;;;;;;;3.50;1.88;;;17.10;99.90;;;;;;5008982;28;20025;-76
2022/04/21 09:51:18;;;;;;;2.72;1.85;;;17.20;99.90;;;;;;5026157;28;20478;-79
2022/04/21 09:53:53;;;;;;;2.40;1.63;;;17.30;99.90;;;;;;5008476;28;20030;-79
2022/04/21 09:56:35;;;;;;;4.38;1.98;;;17.40;99.90;;;;;;5007659;28;20049;-77
2022/04/21 09:59:02;;;;;;;3.38;1.77;;;17.40;99.90;;;;;;5023433;28;20620;-76
2022/04/21 10:01:29;;;;;;;3.13;2.10;;;17.50;99.90;;;;;;5007672;28;20033;-79
2022/04/21 10:03:55;;;;;;;6.78;1.98;;;17.50;99.90;;;;;;5025861;28;20369;-76
2022/04/21 10:06:22;;;;;;;1.73;1.40;;;17.70;99.90;;;;;;5006112;28;20082;-77
2022/04/21 10:08:51;;;;;;;19.55;1.98;;;17.70;99.90;;;;;;5004996;28;20084;-77
2022/04/21 10:11:23;;;;;;;6.03;2.08;;;17.70;99.90;;;;;;5025228;28;20025;-77
2022/04/21 10:13:54;;;;;;;2.95;1.88;;;17.70;99.90;;;;;;5025980;28;20021;-77
2022/04/21 10:16:23;;;;;;;4.47;2.05;;;17.70;99.90;;;;;;5006703;28;20022;-76
2022/04/21 10:18:52;;;;;;;2.90;1.55;;;17.90;99.90;;;;;;5016774;28;20053;-79
2022/04/21 10:21:28;;;;;;;3.75;1.77;;;18.00;99.90;;;;;;5023380;28;20492;-76
2022/04/21 10:23:54;;;;;;;2.22;1.00;;;18.30;99.90;;;;;;5021167;28;20046;-77
2022/04/21 10:26:37;;;;;;;4.63;1.35;;;18.40;99.90;;;;;;5022064;28;20072;-79
2022/04/21 10:29:18;;;;;;;2.30;1.13;;;18.60;99.90;;;;;;5022286;28;20030;-77
2022/04/21 10:32:01;;;;;;;3.30;1.40;;;18.80;99.90;;;;;;5005114;28;20030;-77
2022/04/21 10:34:31;;;;;;;4.35;1.40;;;19.00;99.90;;;;;;5022315;28;20104;-77
2022/04/21 10:37:09;;;;;;;3.38;1.75;;;19.10;99.90;;;;;;5006202;28;20033;-77
2022/04/21 10:39:35;;;;;;;2.92;1.83;;;19.20;99.50;;;;;;5006302;28;20029;-78
2022/04/21 10:42:15;;;;;;;15.27;1.70;;;19.30;99.90;;;;;;5021294;28;20036;-77
2022/04/21 10:44:51;;;;;;;2.25;1.27;;;19.40;99.90;;;;;;5023096;28;20029;-81
2022/04/21 10:47:39;;;;;;;2.47;1.35;;;19.60;99.20;;;;;;5021287;28;20092;-77
2022/04/21 10:50:14;;;;;;;4.47;1.23;;;19.90;99.10;;;;;;5023453;28;20026;-75
2022/04/21 10:58:33;;;;;;;3.47;1.48;;;20.60;96.90;;;;;;5024115;28;20106;-76
2022/04/21 11:01:16;;;;;;;2.05;1.13;;;20.60;96.00;;;;;;5023478;28;20041;-73
2022/04/21 11:03:44;;;;;;;3.37;1.50;;;20.50;96.10;;;;;;5004710;28;20076;-77
2022/04/21 11:06:16;;;;;;;2.17;1.30;;;20.60;97.20;;;;;;5022665;28;20334;-76
2022/04/21 11:08:47;;;;;;;2.88;1.45;;;20.60;97.10;;;;;;5021267;28;20104;-76
2022/04/21 11:11:47;;;;;;;2.20;1.20;;;20.70;96.90;;;;;;5005878;28;20022;-77
2022/04/21 11:14:31;;;;;;;3.22;1.70;;;20.90;95.80;;;;;;5005482;28;20029;-75
2022/04/21 11:16:58;;;;;;;2.58;1.63;;;21.00;94.60;;;;;;5021394;28;20033;-78
2022/04/21 11:19:31;;;;;;;2.30;1.10;;;20.80;95.50;;;;;;5014309;28;20038;-80
2022/04/21 11:21:58;;;;;;;2.60;1.65;;;20.80;95.80;;;;;;5015111;28;20045;-77
2022/04/21 11:24:24;;;;;;;2.97;1.42;;;21.00;94.90;;;;;;5015151;28;20032;-76
2022/04/21 11:26:54;;;;;;;4.07;1.88;;;21.10;95.20;;;;;;5016303;28;20036;-78
2022/04/21 11:29:20;;;;;;;3.33;1.60;;;21.00;95.90;;;;;;5033899;28;20044;-77
2022/04/21 11:31:47;;;;;;;2.63;1.70;;;21.20;94.60;;;;;;5034961;28;20018;-78
2022/04/21 11:34:22;;;;;;;7.43;1.75;;;21.30;95.20;;;;;;5017244;28;20469;-75
2022/04/21 11:36:47;;;;;;;3.58;1.10;;;21.30;93.60;;;;;;5034532;28;20022;-79
2022/04/21 11:39:14;;;;;;;2.75;1.27;;;21.30;94.80;;;;;;5034669;28;20098;-79
2022/04/21 11:41:48;;;;;;;2.72;1.58;;;21.20;95.10;;;;;;5015134;28;20030;-77
2022/04/21 11:44:24;;;;;;;1.15;0.82;;;21.30;94.40;;;;;;5034244;28;20048;-77
2022/04/21 11:46:50;;;;;;;4.00;1.38;;;21.60;94.30;;;;;;5015080;28;20040;-80
2022/04/21 11:49:15;;;;;;;2.40;1.25;;;22.00;95.10;;;;;;5034303;28;20113;-78
2022/04/21 11:51:43;;;;;;;1.40;0.93;;;22.20;95.20;;;;;;5033810;28;20129;-81
2022/04/21 11:54:10;;;;;;;4.35;1.45;;;22.40;93.80;;;;;;5012969;28;20395;-77
2022/04/21 11:56:36;;;;;;;3.78;1.58;;;22.70;93.40;;;;;;5031665;28;20064;-77
2022/04/21 11:59:07;;;;;;;1.88;1.08;;;22.60;91.70;;;;;;5006079;28;20068;-78
2022/04/21 12:07:09;;;;;;;10.82;1.45;;;23.20;93.20;;;;;;5033103;28;20037;-76
2022/04/21 12:09:40;;;;;;;2.42;1.30;;;23.40;91.90;;;;;;5014258;28;20014;-76
2022/04/21 12:12:08;;;;;;;6.30;1.67;;;23.20;91.20;;;;;;5009951;28;20084;-76
2022/04/21 12:14:34;;;;;;;3.53;1.20;;;22.70;90.90;;;;;;5028342;28;20426;-78
2022/04/21 12:17:02;;;;;;;2.58;1.27;;;22.50;91.80;;;;;;5033944;28;20022;-80
2022/04/21 12:19:33;;;;;;;2.60;1.33;;;22.50;92.60;;;;;;5032078;28;20033;-76
2022/04/21 12:22:02;;;;;;;10.95;1.20;;;22.50;91.40;;;;;;5031394;28;20093;-76
2022/04/21 12:24:30;;;;;;;1.48;0.93;;;22.10;90.80;;;;;;5014966;28;20397;-77
2022/04/21 12:26:57;;;;;;;4.50;1.58;;;21.80;91.30;;;;;;5015476;28;20026;-79
2022/04/21 12:29:23;;;;;;;3.65;1.45;;;21.70;91.70;;;;;;5032143;28;20026;-76
2022/04/21 12:31:50;;;;;;;2.80;1.63;;;21.70;92.50;;;;;;5031839;28;20038;-83
2022/04/21 12:34:28;;;;;;;3.05;1.30;;;21.90;92.10;;;;;;5030396;28;20022;-76
2022/04/21 12:37:02;;;;;;;1.38;0.95;;;22.10;92.80;;;;;;5002688;28;20064;-77
2022/04/21 12:39:29;;;;;;;2.22;1.33;;;22.20;91.80;;;;;;5006809;28;20060;-77
2022/04/21 12:41:57;;;;;;;2.85;1.20;;;22.30;92.20;;;;;;5006384;28;20503;-78
2022/04/21 12:44:25;;;;;;;3.55;1.25;;;22.20;91.50;;;;;;5017650;28;20053;-78
2022/04/21 12:47:07;;;;;;;2.13;1.33;;;22.10;91.80;;;;;;5024141;28;20022;-78
2022/04/21 12:49:56;;;;;;;2.38;1.48;;;21.90;91.50;;;;;;5022087;28;20052;-78
2022/04/21 12:52:38;;;;;;;4.20;1.67;;;21.50;90.60;;;;;;5030722;28;20036;-80
2022/04/21 12:55:06;;;;;;;2.60;1.45;;;21.10;91.00;;;;;;5012823;28;20101;-78
2022/04/21 12:57:32;;;;;;;1.52;1.10;;;20.80;91.90;;;;;;5031180;28;20052;-78
2022/04/21 12:59:58;;;;;;;1.90;1.13;;;20.60;91.70;;;;;;5032392;28;20037;-79
2022/04/21 13:02:24;;;;;;;15.25;1.20;;;20.40;92.10;;;;;;5033066;28;20077;-77
2022/04/21 13:04:49;;;;;;;2.00;1.05;;;20.20;91.80;;;;;;5033181;28;20029;-78
2022/04/21 13:07:15;;;;;;;1.58;1.15;;;20.00;91.90;;;;;;5032763;28;20552;-81
2022/04/21 13:09:41;;;;;;;2.30;1.20;;;19.80;92.20;;;;;;5032520;28;20033;-77
2022/04/21 13:12:08;;;;;;;2.80;1.38;;;19.80;91.90;;;;;;5032730;28;20037;-77
2022/04/21 13:14:33;;;;;;;3.65;1.55;;;19.80;91.80;;;;;;5031714;28;20060;-76
2022/04/21 13:17:00;;;;;;;2.38;1.10;;;19.70;91.00;;;;;;5014779;28;20029;-78
2022/04/21 13:19:25;;;;;;;3.05;1.42;;;19.60;91.20;;;;;;5032742;28;20033;-78
2022/04/21 13:21:55;;;;;;;3.38;1.48;;;19.60;91.40;;;;;;5015072;28;20459;-78
2022/04/21 13:24:24;;;;;;;5.85;1.75;;;19.60;92.00;;;;;;5013929;28;20481;-76
2022/04/21 13:26:52;;;;;;;5.05;1.85;;;19.50;91.50;;;;;;5022314;28;20022;-78
2022/04/21 13:29:20;;;;;;;4.40;1.55;;;19.40;91.30;;;;;;5022247;28;20066;-79
2022/04/21 13:34:31;;;;;;;4.50;1.85;;;19.40;91.00;;;;;;5032862;28;20049;-77
2022/04/21 13:36:56;;;;;;;7.50;1.48;;;19.40;91.60;;;;;;5014796;28;20030;-76
2022/04/21 13:39:22;;;;;;;5.22;1.77;;;19.60;91.40;;;;;;5014612;28;20042;-78
2022/04/21 13:41:48;;;;;;;1.63;1.00;;;19.60;91.40;;;;;;5015187;28;20108;-79
2022/04/21 13:44:14;;;;;;;3.00;1.05;;;19.70;91.70;;;;;;5013816;28;20041;-78
2022/04/21 13:46:41;;;;;;;2.03;0.90;;;19.90;92.10;;;;;;5015060;28;20557;-78
2022/04/21 13:49:07;;;;;;;2.40;1.33;;;20.10;91.80;;;;;;5032999;28;20462;-77
2022/04/21 13:51:33;;;;;;;4.57;1.67;;;20.10;91.60;;;;;;5031841;28;20026;-79
2022/04/21 13:53:58;;;;;;;2.58;1.38;;;20.40;92.00;;;;;;5021990;28;20096;-77